createdAt,value
2018-05-29T00:00:52.896Z,30.53
2018-05-29T00:03:21.252Z,22.80
2018-05-29T00:05:49.580Z,24.13
2018-05-29T00:08:17.942Z,21.30
2018-05-29T00:10:46.269Z,23.17
2018-05-29T00:13:14.619Z,35.03
2018-05-29T00:15:42.948Z,21.13
2018-05-29T00:18:11.302Z,31.90
2018-05-29T00:20:39.628Z,20.87
2018-05-29T00:23:07.976Z,27.37
2018-05-29T00:25:36.304Z,32.03
2018-05-29T00:28:04.657Z,22.23
2018-05-29T00:30:32.983Z,28.17
2018-05-29T00:33:01.338Z,22.90
2018-05-29T00:35:29.664Z,29.33
2018-05-29T00:37:58.016Z,33.50
2018-05-29T00:40:26.341Z,26.73
2018-05-29T00:42:54.687Z,26.47
2018-05-29T00:45:23.016Z,31.83
2018-05-29T00:47:51.368Z,26.83
2018-05-29T00:50:19.705Z,25.50
2018-05-29T00:52:48.057Z,29.30
2018-05-29T00:55:28.176Z,26.97
2018-05-29T00:57:56.529Z,25.00
2018-05-29T01:00:24.859Z,27.30
2018-05-29T01:02:53.204Z,25.27
2018-05-29T01:05:21.541Z,31.43
2018-05-29T01:07:49.904Z,25.80
2018-05-29T01:10:18.227Z,30.20
2018-05-29T01:12:46.585Z,29.90
2018-05-29T01:15:14.913Z,29.43
2018-05-29T01:17:43.268Z,26.57
2018-05-29T01:20:11.613Z,28.07
2018-05-29T01:22:39.960Z,27.67
2018-05-29T01:25:08.297Z,31.40
2018-05-29T01:27:36.644Z,27.03
2018-05-29T01:30:04.976Z,31.47
2018-05-29T01:32:33.337Z,26.70
2018-05-29T01:35:01.668Z,28.87
2018-05-29T01:37:30.016Z,27.20
2018-05-29T01:39:58.346Z,27.13
2018-05-29T01:42:26.700Z,36.23
2018-05-29T01:44:55.028Z,32.93
2018-05-29T01:47:23.384Z,31.07
2018-05-29T01:49:51.718Z,37.23
2018-05-29T01:52:20.085Z,32.57
2018-05-29T01:54:48.413Z,38.80
2018-05-29T01:57:16.750Z,27.27
2018-05-29T01:59:45.100Z,31.03
2018-05-29T02:02:13.429Z,33.60
2018-05-29T02:04:41.784Z,33.13
2018-05-29T02:07:10.121Z,35.13
2018-05-29T02:09:38.471Z,38.90
2018-05-29T02:12:06.805Z,33.07
2018-05-29T02:14:35.173Z,36.70
2018-05-29T02:17:03.508Z,29.17
2018-05-29T02:19:31.860Z,31.23
2018-05-29T02:22:00.187Z,28.03
2018-05-29T02:24:28.536Z,31.40
2018-05-29T02:26:56.872Z,34.63
2018-05-29T02:29:25.237Z,30.87
2018-05-29T02:31:53.557Z,40.70
2018-05-29T02:34:21.907Z,32.67
2018-05-29T02:36:50.240Z,34.07
2018-05-29T02:39:18.592Z,34.57
2018-05-29T02:41:46.923Z,35.27
2018-05-29T02:44:15.275Z,34.83
2018-05-29T02:46:43.610Z,36.20
2018-05-29T02:49:11.961Z,31.80
2018-05-29T02:51:40.290Z,35.60
2018-05-29T02:54:08.645Z,31.50
2018-05-29T02:56:36.977Z,42.20
2018-05-29T02:59:05.334Z,34.80
2018-05-29T03:01:33.658Z,29.90
2018-05-29T03:04:02.009Z,34.63
2018-05-29T03:06:30.340Z,30.73
2018-05-29T03:08:58.687Z,33.90
2018-05-29T03:11:27.021Z,33.23
2018-05-29T03:13:55.369Z,35.13
2018-05-29T03:16:23.696Z,29.23
2018-05-29T03:18:52.058Z,27.90
2018-05-29T03:21:20.380Z,30.47
2018-05-29T03:23:48.728Z,30.13
2018-05-29T03:26:17.065Z,34.80
2018-05-29T03:28:45.415Z,32.77
2018-05-29T03:31:13.749Z,25.47
2018-05-29T03:33:42.102Z,28.63
2018-05-29T03:36:10.437Z,27.13
2018-05-29T03:38:38.783Z,32.50
2018-05-29T03:41:07.112Z,32.13
2018-05-29T03:43:35.465Z,29.23
2018-05-29T03:46:03.800Z,30.60
2018-05-29T03:48:32.145Z,33.10
2018-05-29T03:51:00.476Z,33.53
2018-05-29T03:53:28.832Z,33.77
2018-05-29T03:55:57.164Z,32.13
2018-05-29T03:58:25.490Z,33.20
2018-05-29T04:00:53.845Z,29.83
2018-05-29T04:03:22.174Z,31.43
2018-05-29T04:05:51.364Z,30.90
2018-05-29T04:08:19.696Z,30.30
2018-05-29T04:10:48.040Z,46.13
2018-05-29T04:13:16.369Z,35.47
2018-05-29T04:15:44.731Z,39.93
2018-05-29T04:18:13.056Z,51.40
2018-05-29T04:20:41.416Z,32.70
2018-05-29T04:23:09.741Z,40.80
2018-05-29T04:25:38.093Z,32.10
2018-05-29T04:28:06.426Z,33.30
2018-05-29T04:30:34.772Z,34.03
2018-05-29T04:33:03.108Z,29.70
2018-05-29T04:35:31.465Z,32.07
2018-05-29T04:37:59.791Z,32.97
2018-05-29T04:40:28.149Z,31.63
2018-05-29T04:42:56.476Z,32.70
2018-05-29T04:45:24.866Z,37.90
2018-05-29T04:47:53.179Z,33.47
2018-05-29T04:50:21.528Z,29.80
2018-05-29T04:52:49.861Z,27.53
2018-05-29T04:55:18.208Z,27.07
2018-05-29T04:57:46.535Z,36.13
2018-05-29T05:00:14.886Z,30.77
2018-05-29T05:02:43.212Z,38.93
2018-05-29T05:05:11.569Z,30.07
2018-05-29T05:07:39.904Z,32.50
2018-05-29T05:10:08.256Z,29.93
2018-05-29T05:12:36.584Z,31.07
2018-05-29T05:15:04.936Z,35.73
2018-05-29T05:17:33.273Z,33.93
2018-05-29T05:20:01.634Z,28.30
2018-05-29T05:22:29.973Z,26.90
2018-05-29T05:24:58.333Z,29.73
2018-05-29T05:27:26.669Z,25.97
2018-05-29T05:29:55.028Z,36.67
2018-05-29T05:32:23.365Z,28.57
2018-05-29T05:34:51.726Z,37.03
2018-05-29T05:37:20.064Z,28.20
2018-05-29T05:39:48.422Z,35.67
2018-05-29T05:42:16.760Z,28.13
2018-05-29T05:44:45.113Z,26.60
2018-05-29T05:47:13.448Z,35.17
2018-05-29T05:49:41.812Z,28.95
2018-05-29T05:52:10.140Z,25.50
2018-05-29T05:54:38.515Z,32.47
2018-05-29T05:57:06.843Z,23.67
2018-05-29T05:59:35.185Z,32.07
2018-05-29T06:02:03.553Z,26.42
2018-05-29T06:04:31.892Z,29.07
2018-05-29T06:07:00.253Z,32.23
2018-05-29T06:09:28.588Z,28.27
2018-05-29T06:11:56.948Z,29.40
2018-05-29T06:14:25.284Z,21.70
2018-05-29T06:16:53.640Z,30.30
2018-05-29T06:19:21.976Z,22.50
2018-05-29T06:21:50.341Z,26.65
2018-05-29T06:24:18.683Z,27.10
2018-05-29T06:26:47.029Z,24.73
2018-05-29T06:29:15.370Z,24.33
2018-05-29T06:31:43.977Z,23.67
2018-05-29T06:34:12.310Z,25.20
2018-05-29T06:36:40.668Z,24.80
2018-05-29T06:39:09.013Z,23.45
2018-05-29T06:41:37.364Z,25.20
2018-05-29T06:44:05.704Z,24.58
2018-05-29T06:46:34.057Z,25.05
2018-05-29T06:49:02.397Z,25.30
2018-05-29T06:51:30.752Z,25.97
2018-05-29T06:53:59.093Z,25.50
2018-05-29T06:56:27.449Z,20.50
2018-05-29T06:58:55.784Z,19.93
2018-05-29T07:01:24.144Z,23.55
2018-05-29T07:03:52.539Z,35.77
2018-05-29T07:06:20.843Z,23.05
2018-05-29T07:08:49.172Z,29.77
2018-05-29T07:11:18.444Z,26.73
2018-05-29T07:13:46.785Z,23.27
2018-05-29T07:16:15.144Z,22.53
2018-05-29T07:18:43.489Z,25.40
2018-05-29T07:21:11.848Z,23.70
2018-05-29T07:23:40.185Z,24.53
2018-05-29T07:26:08.537Z,29.03
2018-05-29T07:28:36.864Z,32.23
2018-05-29T07:31:05.219Z,21.63
2018-05-29T07:33:33.544Z,25.83
2018-05-29T07:36:01.898Z,25.30
2018-05-29T07:38:30.228Z,27.27
2018-05-29T07:40:58.584Z,27.60
2018-05-29T07:43:26.920Z,23.87
2018-05-29T07:45:55.269Z,30.00
2018-05-29T07:48:23.604Z,24.13
2018-05-29T07:50:51.957Z,29.20
2018-05-29T07:53:20.289Z,27.00
2018-05-29T07:55:48.657Z,22.97
2018-05-29T07:58:17.875Z,28.10
2018-05-29T08:00:46.196Z,22.53
2018-05-29T08:03:14.553Z,20.93
2018-05-29T08:05:42.884Z,20.90
2018-05-29T08:08:11.231Z,28.93
2018-05-29T08:10:39.642Z,27.90
2018-05-29T08:13:07.912Z,25.10
2018-05-29T08:15:36.248Z,23.47
2018-05-29T08:18:04.596Z,26.27
2018-05-29T08:20:32.932Z,21.87
2018-05-29T08:23:01.290Z,26.93
2018-05-29T08:25:29.613Z,29.03
2018-05-29T08:27:58.004Z,35.83
2018-05-29T08:30:26.300Z,26.40
2018-05-29T08:32:54.661Z,20.63
2018-05-29T08:35:23.423Z,24.75
2018-05-29T08:37:51.776Z,26.93
2018-05-29T08:40:20.112Z,33.60
2018-05-29T08:42:48.481Z,21.67
2018-05-29T08:45:16.812Z,26.67
2018-05-29T08:47:45.164Z,20.50
2018-05-29T08:50:13.506Z,27.63
2018-05-29T08:52:41.861Z,18.53
2018-05-29T08:55:10.201Z,25.80
2018-05-29T08:57:38.556Z,26.73
2018-05-29T09:00:06.896Z,26.33
2018-05-29T09:02:35.252Z,23.20
2018-05-29T09:05:03.592Z,18.17
2018-05-29T09:07:31.962Z,21.57
2018-05-29T09:10:00.301Z,19.60
2018-05-29T09:12:29.157Z,16.10
2018-05-29T09:14:57.490Z,22.83
2018-05-29T09:17:25.857Z,12.57
2018-05-29T09:19:54.200Z,21.73
2018-05-29T09:22:22.548Z,14.87
2018-05-29T09:24:50.884Z,16.60
2018-05-29T09:27:19.236Z,14.00
2018-05-29T09:29:47.674Z,27.63
2018-05-29T09:32:15.928Z,12.83
2018-05-29T09:34:44.260Z,15.90
2018-05-29T09:37:12.616Z,18.97
2018-05-29T09:39:40.949Z,16.13
2018-05-29T09:42:09.308Z,16.90
2018-05-29T09:44:37.646Z,15.73
2018-05-29T09:47:06.009Z,17.00
2018-05-29T09:49:34.333Z,12.30
2018-05-29T09:52:03.449Z,10.03
2018-05-29T09:54:31.829Z,15.63
2018-05-29T09:57:00.128Z,16.93
2018-05-29T09:59:28.460Z,17.95
2018-05-29T10:01:56.796Z,12.13
2018-05-29T10:04:25.187Z,16.77
2018-05-29T10:06:53.501Z,20.15
2018-05-29T10:09:21.860Z,15.90
2018-05-29T10:11:51.221Z,14.35
2018-05-29T10:14:19.577Z,24.47
2018-05-29T10:16:47.921Z,33.13
2018-05-29T10:19:16.270Z,11.00
2018-05-29T10:21:44.610Z,14.05
2018-05-29T10:24:12.963Z,13.90
2018-05-29T10:26:41.304Z,13.27
2018-05-29T10:29:09.665Z,16.10
2018-05-29T10:31:38.893Z,13.10
2018-05-29T10:34:07.257Z,12.73
2018-05-29T10:36:35.589Z,12.53
2018-05-29T10:39:03.956Z,11.20
2018-05-29T10:41:32.293Z,23.30
2018-05-29T10:44:00.640Z,13.13
2018-05-29T10:46:28.982Z,13.52
2018-05-29T10:48:57.341Z,14.90
2018-05-29T10:51:25.795Z,11.43
2018-05-29T10:53:54.143Z,12.40
2018-05-29T10:56:22.481Z,11.53
2018-05-29T10:58:50.828Z,8.50
2018-05-29T11:01:19.153Z,7.65
2018-05-29T11:03:47.505Z,12.90
2018-05-29T11:06:15.833Z,11.82
2018-05-29T11:08:44.180Z,8.97
2018-05-29T11:11:13.344Z,13.03
2018-05-29T11:13:41.691Z,8.13
2018-05-29T11:16:10.025Z,17.83
2018-05-29T11:18:38.381Z,13.03
2018-05-29T11:21:06.704Z,12.80
2018-05-29T11:23:35.063Z,11.73
2018-05-29T11:26:03.388Z,7.00
2018-05-29T11:28:31.741Z,13.50
2018-05-29T11:31:00.064Z,8.40
2018-05-29T11:33:28.416Z,11.00
2018-05-29T11:35:56.744Z,7.43
2018-05-29T11:38:25.113Z,13.87
2018-05-29T11:40:53.449Z,7.85
2018-05-29T11:43:21.801Z,10.97
2018-05-29T11:45:50.129Z,10.30
2018-05-29T11:48:18.616Z,19.17
2018-05-29T11:50:46.976Z,16.20
2018-05-29T11:53:15.305Z,9.00
2018-05-29T11:55:43.661Z,14.10
2018-05-29T11:58:11.994Z,14.13
2018-05-29T12:00:40.365Z,14.60
2018-05-29T12:03:08.713Z,21.10
2018-05-29T12:05:37.710Z,9.17
2018-05-29T12:08:06.057Z,9.37
2018-05-29T12:10:34.409Z,13.23
2018-05-29T12:13:02.737Z,12.27
2018-05-29T12:15:31.079Z,7.80
2018-05-29T12:17:59.406Z,8.90
2018-05-29T12:20:27.769Z,16.50
2018-05-29T12:22:56.101Z,17.23
2018-05-29T12:25:24.456Z,15.90
2018-05-29T12:27:52.788Z,9.77
2018-05-29T12:30:21.139Z,19.87
2018-05-29T12:32:49.505Z,14.97
2018-05-29T12:35:17.913Z,13.40
2018-05-29T12:37:46.248Z,8.23
2018-05-29T12:40:14.746Z,13.13
2018-05-29T12:42:43.037Z,9.50
2018-05-29T12:45:11.380Z,8.90
2018-05-29T12:47:39.733Z,11.90
2018-05-29T12:50:08.064Z,16.42
2018-05-29T12:52:36.506Z,8.57
2018-05-29T12:55:04.921Z,10.00
2018-05-29T12:57:33.271Z,9.77
2018-05-29T13:00:01.601Z,12.80
2018-05-29T13:02:30.129Z,7.00
2018-05-29T13:04:58.508Z,7.25
2018-05-29T13:07:26.848Z,8.20
2018-05-29T13:09:55.172Z,14.90
2018-05-29T13:12:24.495Z,14.70
2018-05-29T13:14:52.807Z,10.45
2018-05-29T13:17:21.158Z,9.57
2018-05-29T13:19:49.481Z,7.57
2018-05-29T13:22:17.931Z,12.60
2018-05-29T13:24:46.302Z,8.80
2018-05-29T13:27:14.664Z,10.97
2018-05-29T13:29:42.997Z,13.77
2018-05-29T13:32:11.352Z,9.30
2018-05-29T13:34:39.673Z,7.15
2018-05-29T13:37:08.018Z,8.57
2018-05-29T13:39:36.345Z,10.40
2018-05-29T13:42:04.697Z,28.47
2018-05-29T13:44:33.025Z,7.87
2018-05-29T13:47:01.377Z,9.80
2018-05-29T13:49:29.704Z,13.38
2018-05-29T13:51:58.065Z,12.00
2018-05-29T13:54:26.396Z,37.60
2018-05-29T13:56:54.744Z,17.03
2018-05-29T13:59:23.173Z,8.47
2018-05-29T14:01:51.521Z,9.88
2018-05-29T14:04:19.929Z,9.98
2018-05-29T14:06:48.281Z,9.13
2018-05-29T14:09:16.605Z,16.30
2018-05-29T14:11:44.962Z,14.37
2018-05-29T14:14:13.288Z,12.77
2018-05-29T14:16:41.636Z,17.00
2018-05-29T14:19:09.969Z,12.70
2018-05-29T14:21:38.312Z,8.43
2018-05-29T14:24:06.649Z,8.70
2018-05-29T14:26:34.995Z,9.07
2018-05-29T14:29:03.312Z,8.70
2018-05-29T14:31:31.699Z,12.07
2018-05-29T14:34:00.017Z,16.80
2018-05-29T14:36:28.360Z,9.70
2018-05-29T14:38:56.701Z,14.17
2018-05-29T14:41:25.055Z,9.10
2018-05-29T14:43:53.483Z,16.20
2018-05-29T14:46:21.735Z,10.90
2018-05-29T14:48:50.092Z,15.37
2018-05-29T14:51:18.420Z,8.17
2018-05-29T14:53:46.773Z,8.90
2018-05-29T14:56:15.093Z,11.50
2018-05-29T14:58:43.492Z,10.88
2018-05-29T15:01:11.803Z,15.20
2018-05-29T15:03:40.148Z,8.13
2018-05-29T15:06:08.476Z,13.93
2018-05-29T15:08:36.837Z,14.93
2018-05-29T15:11:05.176Z,12.65
2018-05-29T15:13:33.521Z,7.07
2018-05-29T15:16:01.848Z,12.65
2018-05-29T15:18:30.248Z,9.23
2018-05-29T15:20:59.588Z,8.20
2018-05-29T15:23:27.937Z,14.80
2018-05-29T15:25:56.259Z,9.87
2018-05-29T15:28:24.616Z,6.82
2018-05-29T15:30:52.941Z,9.40
2018-05-29T15:33:21.315Z,8.83
2018-05-29T15:35:49.608Z,7.87
2018-05-29T15:38:17.969Z,10.73
2018-05-29T15:40:46.326Z,9.93
2018-05-29T15:43:14.659Z,7.40
2018-05-29T15:45:42.983Z,8.03
2018-05-29T15:48:11.328Z,18.10
2018-05-29T15:50:39.665Z,17.60
2018-05-29T15:53:08.025Z,7.87
2018-05-29T15:55:36.354Z,13.00
2018-05-29T15:58:04.705Z,12.20
2018-05-29T16:00:33.976Z,7.53
2018-05-29T16:03:02.325Z,7.80
2018-05-29T16:05:30.656Z,15.10
2018-05-29T16:07:59.000Z,8.43
2018-05-29T16:10:27.333Z,10.73
2018-05-29T16:12:55.684Z,13.30
2018-05-29T16:15:24.016Z,17.20
2018-05-29T16:17:52.368Z,14.07
2018-05-29T16:20:20.697Z,8.80
2018-05-29T16:22:49.052Z,12.60
2018-05-29T16:25:17.380Z,13.73
2018-05-29T16:27:45.736Z,12.23
2018-05-29T16:30:14.064Z,10.82
2018-05-29T16:32:42.425Z,14.33
2018-05-29T16:35:10.752Z,13.63
2018-05-29T16:37:39.099Z,9.30
2018-05-29T16:40:08.346Z,16.45
2018-05-29T16:42:36.688Z,11.13
2018-05-29T16:45:05.020Z,15.20
2018-05-29T16:47:33.352Z,12.95
2018-05-29T16:50:01.718Z,10.13
2018-05-29T16:52:30.049Z,18.87
2018-05-29T16:54:58.406Z,13.50
2018-05-29T16:57:26.741Z,12.27
2018-05-29T16:59:55.932Z,11.15
2018-05-29T17:02:24.265Z,10.40
2018-05-29T17:04:52.663Z,11.67
2018-05-29T17:07:20.957Z,10.88
2018-05-29T17:09:49.310Z,8.77
2018-05-29T17:12:17.631Z,10.33
2018-05-29T17:14:45.992Z,11.20
2018-05-29T17:17:14.321Z,10.80
2018-05-29T17:19:43.694Z,14.52
2018-05-29T17:22:12.020Z,15.93
2018-05-29T17:24:40.376Z,15.97
2018-05-29T17:27:08.752Z,12.70
2018-05-29T17:29:37.147Z,20.85
2018-05-29T17:32:05.503Z,16.17
2018-05-29T17:34:33.849Z,15.03
2018-05-29T17:37:02.216Z,9.80
2018-05-29T17:39:30.568Z,10.37
2018-05-29T17:41:58.898Z,11.13
2018-05-29T17:44:27.261Z,25.97
2018-05-29T17:46:55.584Z,10.90
2018-05-29T17:49:23.932Z,11.63
2018-05-29T17:51:52.269Z,9.53
2018-05-29T17:54:20.616Z,22.83
2018-05-29T17:56:48.945Z,18.20
2018-05-29T17:59:17.292Z,9.57
2018-05-29T18:01:46.261Z,10.75
2018-05-29T18:04:14.607Z,12.47
2018-05-29T18:06:42.941Z,11.40
2018-05-29T18:09:11.315Z,11.15
2018-05-29T18:11:39.649Z,10.00
2018-05-29T18:14:08.024Z,14.52
2018-05-29T18:16:36.340Z,13.50
2018-05-29T18:19:04.706Z,15.93
2018-05-29T18:21:33.041Z,16.60
2018-05-29T18:24:01.403Z,17.55
2018-05-29T18:26:29.738Z,13.70
2018-05-29T18:28:58.088Z,12.00
2018-05-29T18:31:26.420Z,12.32
2018-05-29T18:33:54.781Z,14.13
2018-05-29T18:36:23.121Z,14.07
2018-05-29T18:38:51.474Z,15.80
2018-05-29T18:41:19.808Z,13.93
2018-05-29T18:43:48.165Z,22.83
2018-05-29T18:46:16.506Z,15.83
2018-05-29T18:48:44.859Z,16.87
2018-05-29T18:51:13.210Z,20.00
2018-05-29T18:53:41.549Z,17.30
2018-05-29T18:56:09.911Z,11.70
2018-05-29T18:58:43.898Z,12.03
2018-05-29T19:01:12.252Z,26.97
2018-05-29T19:03:40.584Z,12.03
2018-05-29T19:06:08.940Z,17.10
2018-05-29T19:08:37.277Z,15.63
2018-05-29T19:11:05.641Z,19.73
2018-05-29T19:13:33.983Z,14.77
2018-05-29T19:16:02.340Z,17.83
2018-05-29T19:18:30.689Z,15.82
2018-05-29T19:20:59.046Z,23.47
2018-05-29T19:23:27.392Z,16.53
2018-05-29T19:25:55.737Z,15.00
2018-05-29T19:28:24.073Z,21.40
2018-05-29T19:30:52.437Z,20.20
2018-05-29T19:33:20.773Z,18.73
2018-05-29T19:35:49.145Z,14.73
2018-05-29T19:38:17.475Z,11.13
2018-05-29T19:40:45.831Z,18.87
2018-05-29T19:43:14.156Z,19.90
2018-05-29T19:45:42.509Z,10.70
2018-05-29T19:48:10.841Z,14.60
2018-05-29T19:50:39.202Z,13.60
2018-05-29T19:53:07.520Z,15.30
2018-05-29T19:55:35.868Z,10.70
2018-05-29T19:58:04.210Z,12.43
2018-05-29T20:00:32.560Z,12.90
2018-05-29T20:03:00.884Z,11.60
2018-05-29T20:05:29.236Z,22.27
2018-05-29T20:07:57.568Z,22.33
2018-05-29T20:10:25.922Z,15.68
2018-05-29T20:12:54.249Z,8.85
2018-05-29T20:15:22.596Z,10.27
2018-05-29T20:17:50.933Z,10.50
2018-05-29T20:20:19.287Z,10.27
2018-05-29T20:22:47.612Z,35.67
2018-05-29T20:25:15.968Z,10.57
2018-05-29T20:27:44.295Z,12.70
2018-05-29T20:30:12.654Z,12.43
2018-05-29T20:32:40.990Z,10.23
2018-05-29T20:35:09.340Z,12.85
2018-05-29T20:37:37.676Z,14.18
2018-05-29T20:40:06.384Z,17.48
2018-05-29T20:42:34.716Z,20.43
2018-05-29T20:45:03.157Z,23.87
2018-05-29T20:47:31.489Z,17.20
2018-05-29T20:49:59.876Z,14.93
2018-05-29T20:52:28.196Z,21.17
2018-05-29T20:54:56.524Z,16.13
2018-05-29T20:57:24.882Z,16.93
2018-05-29T20:59:53.208Z,15.87
2018-05-29T21:02:21.565Z,32.23
2018-05-29T21:04:49.896Z,17.20
2018-05-29T21:07:18.254Z,21.80
2018-05-29T21:09:46.590Z,19.63
2018-05-29T21:12:14.937Z,21.30
2018-05-29T21:14:43.276Z,27.93
2018-05-29T21:17:11.628Z,34.63
2018-05-29T21:19:39.957Z,25.30
2018-05-29T21:22:08.311Z,30.73
2018-05-29T21:24:36.647Z,24.50
2018-05-29T21:27:05.001Z,18.40
2018-05-29T21:29:33.328Z,21.30
2018-05-29T21:32:01.676Z,38.43
2018-05-29T21:34:30.060Z,28.50
2018-05-29T21:36:58.413Z,40.13
2018-05-29T21:39:26.740Z,34.70
2018-05-29T21:41:55.092Z,29.60
2018-05-29T21:44:23.427Z,22.73
2018-05-29T21:46:51.772Z,41.20
2018-05-29T21:49:20.100Z,38.70
2018-05-29T21:51:48.457Z,23.20
2018-05-29T21:54:16.784Z,18.20
2018-05-29T21:56:45.152Z,35.37
2018-05-29T21:59:13.468Z,20.23
2018-05-29T22:01:41.824Z,23.13
2018-05-29T22:04:10.158Z,16.37
2018-05-29T22:06:38.508Z,30.07
2018-05-29T22:09:06.853Z,21.77
2018-05-29T22:11:35.203Z,21.00
2018-05-29T22:14:03.528Z,20.43
2018-05-29T22:16:31.891Z,14.60
2018-05-29T22:19:00.221Z,23.23
2018-05-29T22:21:28.569Z,23.97
2018-05-29T22:23:56.938Z,20.57
2018-05-29T22:26:25.239Z,19.67
2018-05-29T22:28:53.569Z,14.67
2018-05-29T22:31:21.917Z,17.60
2018-05-29T22:33:50.240Z,17.50
2018-05-29T22:36:18.591Z,19.43
2018-05-29T22:38:46.928Z,19.93
2018-05-29T22:41:15.281Z,25.20
2018-05-29T22:43:43.614Z,23.83
2018-05-29T22:46:11.961Z,16.63
2018-05-29T22:48:40.302Z,24.03
2018-05-29T22:51:08.667Z,18.90
2018-05-29T22:53:36.984Z,24.13
2018-05-29T22:56:05.312Z,16.33
2018-05-29T22:58:33.669Z,20.43
2018-05-29T23:01:02.001Z,32.17
2018-05-29T23:03:30.353Z,30.00
2018-05-29T23:05:58.689Z,15.80
2018-05-29T23:08:27.032Z,18.87
2018-05-29T23:10:55.368Z,16.50
2018-05-29T23:13:23.720Z,26.73
2018-05-29T23:15:52.053Z,30.20
2018-05-29T23:18:20.409Z,28.43
2018-05-29T23:20:48.745Z,22.70
2018-05-29T23:23:17.088Z,28.70
2018-05-29T23:25:45.424Z,20.40
2018-05-29T23:28:13.777Z,20.43
2018-05-29T23:30:42.108Z,21.47
2018-05-29T23:33:10.460Z,35.73
2018-05-29T23:35:38.810Z,27.60
2018-05-29T23:38:07.156Z,22.80
2018-05-29T23:40:35.512Z,23.37
2018-05-29T23:43:03.869Z,24.67
2018-05-29T23:45:32.192Z,15.40
2018-05-29T23:48:00.544Z,23.40
2018-05-29T23:50:28.868Z,28.83
2018-05-29T23:52:57.220Z,17.23
2018-05-29T23:55:25.548Z,18.53
2018-05-29T23:57:53.905Z,25.90
